sensor_id;sensor_type;location;lat;lon;timestamp;pressure;altitude;pressure_sealevel;temperature;humidity
45941;BME280;31858;46.008;8.978;2023-02-16T00:03:46;95550.66;;;8.76;48.48
45941;BME280;31858;46.008;8.978;2023-02-16T00:13:49;95547.03;;;8.57;49.62
45941;BME280;31858;46.008;8.978;2023-02-16T00:23:52;95542.56;;;8.24;49.56
45941;BME280;31858;46.008;8.978;2023-02-16T00:33:55;95537.81;;;8.30;49.73
45941;BME280;31858;46.008;8.978;2023-02-16T00:43:56;95531.72;;;8.17;50.37
45941;BME280;31858;46.008;8.978;2023-02-16T00:53:59;95530.84;;;8.13;49.83
45941;BME280;31858;46.008;8.978;2023-02-16T01:04:03;95525.53;;;8.13;49.87
45941;BME280;31858;46.008;8.978;2023-02-16T01:14:11;95536.00;;;7.97;48.63
45941;BME280;31858;46.008;8.978;2023-02-16T01:24:13;95527.81;;;7.90;48.13
45941;BME280;31858;46.008;8.978;2023-02-16T01:34:16;95519.75;;;7.86;47.79
45941;BME280;31858;46.008;8.978;2023-02-16T01:44:22;95504.03;;;7.81;48.07
45941;BME280;31858;46.008;8.978;2023-02-16T01:54:34;95497.75;;;7.74;49.87
45941;BME280;31858;46.008;8.978;2023-02-16T02:04:42;95494.53;;;7.68;49.29
45941;BME280;31858;46.008;8.978;2023-02-16T02:15:04;95488.88;;;7.58;49.77
45941;BME280;31858;46.008;8.978;2023-02-16T02:25:23;95476.38;;;7.58;49.13
45941;BME280;31858;46.008;8.978;2023-02-16T02:35:39;95469.09;;;7.67;48.74
45941;BME280;31858;46.008;8.978;2023-02-16T02:45:46;95463.91;;;7.59;49.34
45941;BME280;31858;46.008;8.978;2023-02-16T02:55:50;95462.88;;;7.51;47.50
45941;BME280;31858;46.008;8.978;2023-02-16T03:06:14;95457.03;;;7.45;48.38
45941;BME280;31858;46.008;8.978;2023-02-16T03:16:21;95455.03;;;7.42;48.50
45941;BME280;31858;46.008;8.978;2023-02-16T03:26:24;95452.63;;;7.16;48.85
45941;BME280;31858;46.008;8.978;2023-02-16T03:36:47;95452.50;;;7.13;48.99
45941;BME280;31858;46.008;8.978;2023-02-16T03:46:50;95447.25;;;7.25;48.88
45941;BME280;31858;46.008;8.978;2023-02-16T03:56:53;95448.44;;;7.15;49.21
45941;BME280;31858;46.008;8.978;2023-02-16T04:06:54;95441.78;;;7.09;49.17
45941;BME280;31858;46.008;8.978;2023-02-16T04:16:57;95443.50;;;6.93;50.62
45941;BME280;31858;46.008;8.978;2023-02-16T04:26:59;95447.69;;;6.94;49.92
45941;BME280;31858;46.008;8.978;2023-02-16T04:37:02;95449.50;;;6.81;49.79
45941;BME280;31858;46.008;8.978;2023-02-16T04:47:05;95441.69;;;6.85;49.48
45941;BME280;31858;46.008;8.978;2023-02-16T04:57:08;95443.63;;;6.76;50.41
45941;BME280;31858;46.008;8.978;2023-02-16T05:07:10;95447.13;;;6.68;49.61
45941;BME280;31858;46.008;8.978;2023-02-16T05:17:15;95447.06;;;6.76;49.05
45941;BME280;31858;46.008;8.978;2023-02-16T05:27:19;95442.28;;;6.70;49.83
45941;BME280;31858;46.008;8.978;2023-02-16T05:37:22;95449.06;;;6.59;49.84
45941;BME280;31858;46.008;8.978;2023-02-16T05:47:24;95455.25;;;6.63;49.13
45941;BME280;31858;46.008;8.978;2023-02-16T05:57:27;95450.47;;;6.77;48.42
45941;BME280;31858;46.008;8.978;2023-02-16T06:07:28;95458.44;;;6.77;48.61
45941;BME280;31858;46.008;8.978;2023-02-16T06:17:31;95465.41;;;6.81;49.15
45941;BME280;31858;46.008;8.978;2023-02-16T06:27:33;95475.41;;;6.76;49.36
45941;BME280;31858;46.008;8.978;2023-02-16T06:37:35;95484.31;;;6.71;48.96
45941;BME280;31858;46.008;8.978;2023-02-16T06:47:37;95492.28;;;6.71;48.75
45941;BME280;31858;46.008;8.978;2023-02-16T06:57:40;95504.47;;;6.64;49.89
45941;BME280;31858;46.008;8.978;2023-02-16T07:07:42;95505.31;;;6.55;49.39
45941;BME280;31858;46.008;8.978;2023-02-16T07:17:45;95515.41;;;6.62;49.88
45941;BME280;31858;46.008;8.978;2023-02-16T07:27:46;95514.75;;;6.65;49.32
45941;BME280;31858;46.008;8.978;2023-02-16T07:37:50;95521.28;;;6.68;49.44
45941;BME280;31858;46.008;8.978;2023-02-16T07:47:51;95530.97;;;6.64;50.97
45941;BME280;31858;46.008;8.978;2023-02-16T07:57:54;95529.16;;;6.76;51.75
45941;BME280;31858;46.008;8.978;2023-02-16T08:07:57;95538.59;;;6.86;51.16
45941;BME280;31858;46.008;8.978;2023-02-16T08:18:00;95544.44;;;7.00;51.08
45941;BME280;31858;46.008;8.978;2023-02-16T08:28:01;95544.75;;;6.99;53.30
45941;BME280;31858;46.008;8.978;2023-02-16T08:38:04;95548.81;;;6.96;53.34
45941;BME280;31858;46.008;8.978;2023-02-16T08:48:08;95542.16;;;6.90;54.95
45941;BME280;31858;46.008;8.978;2023-02-16T08:58:12;95544.75;;;6.99;55.02
45941;BME280;31858;46.008;8.978;2023-02-16T09:08:15;95546.38;;;7.12;56.10
45941;BME280;31858;46.008;8.978;2023-02-16T09:18:18;95545.34;;;7.04;60.86
45941;BME280;31858;46.008;8.978;2023-02-16T09:28:20;95549.06;;;7.24;58.15
45941;BME280;31858;46.008;8.978;2023-02-16T09:38:24;95541.28;;;7.40;61.01
45941;BME280;31858;46.008;8.978;2023-02-16T09:48:33;95553.94;;;7.55;57.28
45941;BME280;31858;46.008;8.978;2023-02-16T09:58:41;95569.31;;;8.07;54.90
45941;BME280;31858;46.008;8.978;2023-02-16T10:08:48;95566.06;;;8.34;54.05
45941;BME280;31858;46.008;8.978;2023-02-16T10:18:54;95557.75;;;8.72;50.49
45941;BME280;31858;46.008;8.978;2023-02-16T10:28:58;95576.63;;;9.07;48.66
45941;BME280;31858;46.008;8.978;2023-02-16T10:39:07;95558.38;;;9.34;53.10
45941;BME280;31858;46.008;8.978;2023-02-16T10:49:12;95554.50;;;9.31;50.21
45941;BME280;31858;46.008;8.978;2023-02-16T10:59:18;95553.59;;;9.39;53.08
45941;BME280;31858;46.008;8.978;2023-02-16T11:09:26;95544.44;;;9.53;53.78
45941;BME280;31858;46.008;8.978;2023-02-16T11:19:29;95531.03;;;9.93;53.84
45941;BME280;31858;46.008;8.978;2023-02-16T11:29:33;95525.69;;;10.21;51.42
45941;BME280;31858;46.008;8.978;2023-02-16T11:39:38;95520.34;;;10.36;55.49
45941;BME280;31858;46.008;8.978;2023-02-16T11:49:41;95504.16;;;10.45;55.62
45941;BME280;31858;46.008;8.978;2023-02-16T11:59:44;95497.13;;;10.72;53.11
45941;BME280;31858;46.008;8.978;2023-02-16T12:09:49;95487.75;;;10.97;58.58
45941;BME280;31858;46.008;8.978;2023-02-16T12:20:04;95487.34;;;11.15;59.67
45941;BME280;31858;46.008;8.978;2023-02-16T12:30:19;95464.38;;;11.49;61.00
45941;BME280;31858;46.008;8.978;2023-02-16T12:40:38;95453.53;;;11.61;60.86
45941;BME280;31858;46.008;8.978;2023-02-16T12:50:44;95445.94;;;11.86;62.40
45941;BME280;31858;46.008;8.978;2023-02-16T13:00:51;95428.03;;;11.86;62.57
45941;BME280;31858;46.008;8.978;2023-02-16T13:10:59;95417.78;;;12.15;63.60
45941;BME280;31858;46.008;8.978;2023-02-16T13:21:08;95406.00;;;12.46;67.00
45941;BME280;31858;46.008;8.978;2023-02-16T13:31:22;95386.88;;;12.44;61.74
45941;BME280;31858;46.008;8.978;2023-02-16T13:42:04;95386.75;;;12.63;63.93
45941;BME280;31858;46.008;8.978;2023-02-16T13:52:06;95397.91;;;12.68;64.81
45941;BME280;31858;46.008;8.978;2023-02-16T14:02:11;95394.81;;;12.66;60.85
45941;BME280;31858;46.008;8.978;2023-02-16T14:12:19;95379.81;;;12.58;61.90
45941;BME280;31858;46.008;8.978;2023-02-16T14:22:32;95394.53;;;12.75;63.21
45941;BME280;31858;46.008;8.978;2023-02-16T14:32:35;95384.81;;;12.60;62.42
45941;BME280;31858;46.008;8.978;2023-02-16T14:42:45;95384.81;;;12.60;64.75
45941;BME280;31858;46.008;8.978;2023-02-16T14:53:13;95386.25;;;12.54;61.26
45941;BME280;31858;46.008;8.978;2023-02-16T15:03:21;95400.16;;;12.10;62.84
45941;BME280;31858;46.008;8.978;2023-02-16T15:13:25;95401.69;;;12.11;66.24
45941;BME280;31858;46.008;8.978;2023-02-16T15:23:30;95392.41;;;12.01;66.64
45941;BME280;31858;46.008;8.978;2023-02-16T15:33:35;95402.31;;;12.01;67.07
45941;BME280;31858;46.008;8.978;2023-02-16T15:43:44;95400.28;;;11.71;68.93
45941;BME280;31858;46.008;8.978;2023-02-16T15:53:48;95405.75;;;11.33;75.01
45941;BME280;31858;46.008;8.978;2023-02-16T16:03:52;95400.03;;;11.11;77.30
45941;BME280;31858;46.008;8.978;2023-02-16T16:13:53;95403.41;;;10.89;83.23
45941;BME280;31858;46.008;8.978;2023-02-16T16:24:00;95402.84;;;10.80;89.77
45941;BME280;31858;46.008;8.978;2023-02-16T16:34:04;95408.03;;;10.54;90.91
45941;BME280;31858;46.008;8.978;2023-02-16T16:44:09;95426.00;;;10.22;96.75
45941;BME280;31858;46.008;8.978;2023-02-16T16:54:30;95425.84;;;9.99;100.00
45941;BME280;31858;46.008;8.978;2023-02-16T17:04:33;95425.94;;;9.71;100.00
45941;BME280;31858;46.008;8.978;2023-02-16T17:14:34;95429.81;;;9.73;100.00
45941;BME280;31858;46.008;8.978;2023-02-16T17:24:38;95450.72;;;9.59;100.00
45941;BME280;31858;46.008;8.978;2023-02-16T17:34:39;95468.13;;;9.41;100.00
45941;BME280;31858;46.008;8.978;2023-02-16T17:44:42;95471.63;;;9.29;100.00
45941;BME280;31858;46.008;8.978;2023-02-16T17:54:44;95488.72;;;9.00;100.00
45941;BME280;31858;46.008;8.978;2023-02-16T18:04:47;95501.94;;;9.12;100.00
45941;BME280;31858;46.008;8.978;2023-02-16T18:14:48;95506.56;;;9.15;100.00
45941;BME280;31858;46.008;8.978;2023-02-16T18:24:51;95503.88;;;9.00;100.00
45941;BME280;31858;46.008;8.978;2023-02-16T18:34:53;95528.13;;;8.98;100.00
45941;BME280;31858;46.008;8.978;2023-02-16T18:44:56;95521.94;;;8.94;100.00
45941;BME280;31858;46.008;8.978;2023-02-16T18:54:58;95524.47;;;9.03;100.00
45941;BME280;31858;46.008;8.978;2023-02-16T19:05:01;95532.06;;;9.16;100.00
45941;BME280;31858;46.008;8.978;2023-02-16T19:15:03;95533.84;;;9.12;100.00
45941;BME280;31858;46.008;8.978;2023-02-16T19:25:06;95529.19;;;8.81;100.00
45941;BME280;31858;46.008;8.978;2023-02-16T19:35:09;95546.88;;;8.90;100.00
45941;BME280;31858;46.008;8.978;2023-02-16T19:45:12;95564.28;;;8.87;100.00
45941;BME280;31858;46.008;8.978;2023-02-16T19:55:13;95575.59;;;8.47;100.00
45941;BME280;31858;46.008;8.978;2023-02-16T20:05:16;95577.97;;;8.16;100.00
45941;BME280;31858;46.008;8.978;2023-02-16T20:15:18;95581.91;;;7.98;100.00
45941;BME280;31858;46.008;8.978;2023-02-16T20:25:21;95588.28;;;7.84;100.00
45941;BME280;31858;46.008;8.978;2023-02-16T20:35:23;95593.91;;;7.71;100.00
45941;BME280;31858;46.008;8.978;2023-02-16T20:45:26;95584.69;;;7.56;100.00
45941;BME280;31858;46.008;8.978;2023-02-16T20:55:27;95598.22;;;7.42;100.00
45941;BME280;31858;46.008;8.978;2023-02-16T21:05:30;95621.94;;;7.39;100.00
45941;BME280;31858;46.008;8.978;2023-02-16T21:15:32;95619.22;;;7.27;100.00
45941;BME280;31858;46.008;8.978;2023-02-16T21:25:35;95615.66;;;7.23;100.00
45941;BME280;31858;46.008;8.978;2023-02-16T21:35:37;95618.13;;;7.07;100.00
45941;BME280;31858;46.008;8.978;2023-02-16T21:45:40;95597.03;;;7.10;100.00
45941;BME280;31858;46.008;8.978;2023-02-16T21:55:41;95589.28;;;7.05;100.00
45941;BME280;31858;46.008;8.978;2023-02-16T22:06:02;95582.16;;;6.97;100.00
45941;BME280;31858;46.008;8.978;2023-02-16T22:16:11;95586.63;;;6.84;100.00
45941;BME280;31858;46.008;8.978;2023-02-16T22:26:22;95584.50;;;6.99;100.00
45941;BME280;31858;46.008;8.978;2023-02-16T22:36:23;95588.47;;;6.84;100.00
45941;BME280;31858;46.008;8.978;2023-02-16T22:46:28;95590.03;;;6.85;100.00
45941;BME280;31858;46.008;8.978;2023-02-16T22:56:30;95588.22;;;6.77;100.00
45941;BME280;31858;46.008;8.978;2023-02-16T23:06:35;95584.75;;;6.85;100.00
45941;BME280;31858;46.008;8.978;2023-02-16T23:16:37;95582.97;;;6.68;100.00
45941;BME280;31858;46.008;8.978;2023-02-16T23:26:40;95569.94;;;6.54;100.00
45941;BME280;31858;46.008;8.978;2023-02-16T23:36:41;95573.81;;;6.36;100.00
45941;BME280;31858;46.008;8.978;2023-02-16T23:46:44;95565.63;;;6.20;100.00
45941;BME280;31858;46.008;8.978;2023-02-16T23:56:46;95566.13;;;6.14;100.00
